createdAt,value
2022-11-11T00:01:29.734Z,25.50
2022-11-11T00:04:16.043Z,22.80
2022-11-11T00:07:02.945Z,27.60
2022-11-11T00:09:48.731Z,24.00
2022-11-11T00:12:34.834Z,24.80
2022-11-11T00:15:22.619Z,25.60
2022-11-11T00:18:33.331Z,31.40
2022-11-11T00:21:36.752Z,29.80
2022-11-11T00:24:45.116Z,26.00
2022-11-11T00:27:30.747Z,26.70
2022-11-11T00:30:16.888Z,23.70
2022-11-11T00:33:02.462Z,28.30
2022-11-11T00:35:57.406Z,25.20
2022-11-11T00:38:46.693Z,24.20
2022-11-11T00:41:32.474Z,24.60
2022-11-11T00:44:18.224Z,23.70
2022-11-11T00:47:21.594Z,24.50
2022-11-11T00:50:30.769Z,23.30
2022-11-11T00:53:23.412Z,25.40
2022-11-11T00:56:11.992Z,27.00
2022-11-11T00:58:57.745Z,33.90
2022-11-11T01:01:43.526Z,27.70
2022-11-11T01:04:29.667Z,25.30
2022-11-11T01:07:15.344Z,24.60
2022-11-11T01:10:01.134Z,26.30
2022-11-11T01:12:47.304Z,25.30
2022-11-11T01:15:35.793Z,29.20
2022-11-11T01:18:24.438Z,23.90
2022-11-11T01:21:13.028Z,25.50
2022-11-11T01:23:58.914Z,23.60
2022-11-11T01:26:45.293Z,22.90
2022-11-11T01:29:31.782Z,29.70
2022-11-11T01:32:17.468Z,24.00
2022-11-11T01:35:03.337Z,25.90
2022-11-11T01:37:49.493Z,25.80
2022-11-11T01:40:43.957Z,27.00
2022-11-11T01:43:30.364Z,25.50
2022-11-11T01:46:26.644Z,27.10
2022-11-11T01:49:29.741Z,30.90
2022-11-11T01:52:20.416Z,23.40
2022-11-11T01:55:09.569Z,25.90
2022-11-11T01:57:59.272Z,25.90
2022-11-11T02:00:46.130Z,26.70
2022-11-11T02:03:36.741Z,23.80
2022-11-11T02:06:23.023Z,25.30
2022-11-11T02:09:09.879Z,26.10
2022-11-11T02:12:15.492Z,29.90
2022-11-11T02:15:02.819Z,29.30
2022-11-11T02:17:50.753Z,28.00
2022-11-11T02:20:40.027Z,23.30
2022-11-11T02:23:30.025Z,26.90
2022-11-11T02:26:20.220Z,28.60
2022-11-11T02:29:10.413Z,23.50
2022-11-11T02:31:56.740Z,26.40
2022-11-11T02:34:42.214Z,26.30
2022-11-11T02:37:29.234Z,27.00
2022-11-11T02:40:18.111Z,28.10
2022-11-11T02:43:03.971Z,27.60
2022-11-11T02:45:50.108Z,25.50
2022-11-11T02:48:35.887Z,29.20
2022-11-11T02:51:21.857Z,26.10
2022-11-11T02:54:07.922Z,28.20
2022-11-11T02:57:09.504Z,26.80
2022-11-11T02:59:55.022Z,25.30
2022-11-11T03:02:40.940Z,27.20
2022-11-11T03:05:26.742Z,24.90
2022-11-11T03:08:12.723Z,24.10
2022-11-11T03:10:58.670Z,27.80
2022-11-11T03:13:44.580Z,28.10
2022-11-11T03:16:44.421Z,24.60
2022-11-11T03:19:30.706Z,30.20
2022-11-11T03:22:54.032Z,24.20
2022-11-11T03:25:41.546Z,26.40
2022-11-11T03:28:27.641Z,25.30
2022-11-11T03:31:13.189Z,23.80
2022-11-11T03:34:18.320Z,22.70
2022-11-11T03:37:22.092Z,25.30
2022-11-11T03:40:10.086Z,25.00
2022-11-11T03:42:59.685Z,25.60
2022-11-11T03:45:50.547Z,28.00
2022-11-11T03:48:36.900Z,27.30
2022-11-11T03:51:22.790Z,22.80
2022-11-11T03:54:08.650Z,26.90
2022-11-11T03:57:15.611Z,23.70
2022-11-11T04:00:01.338Z,23.90
2022-11-11T04:03:04.901Z,29.80
2022-11-11T04:06:07.995Z,22.10
2022-11-11T04:09:11.741Z,23.60
2022-11-11T04:11:57.224Z,23.50
2022-11-11T04:15:00.503Z,25.80
2022-11-11T04:17:46.575Z,23.30
2022-11-11T04:20:50.055Z,22.40
2022-11-11T04:23:35.615Z,25.70
2022-11-11T04:26:21.575Z,23.60
2022-11-11T04:29:24.846Z,24.40
2022-11-11T04:32:29.685Z,20.00
2022-11-11T04:35:16.738Z,28.00
2022-11-11T04:38:16.667Z,20.50
2022-11-11T04:41:05.021Z,25.50
2022-11-11T04:44:08.492Z,25.80
2022-11-11T04:46:53.993Z,20.50
2022-11-11T04:49:39.419Z,22.40
2022-11-11T04:52:28.733Z,23.50
2022-11-11T04:55:31.945Z,22.10
2022-11-11T04:58:18.849Z,22.80
2022-11-11T05:01:05.045Z,19.60
2022-11-11T05:03:50.828Z,25.70
2022-11-11T05:06:58.108Z,18.80
2022-11-11T05:09:45.138Z,18.20
2022-11-11T05:12:30.878Z,20.80
2022-11-11T05:15:34.588Z,26.50
2022-11-11T05:18:37.791Z,22.90
2022-11-11T05:21:28.292Z,18.30
2022-11-11T05:24:31.993Z,22.40
2022-11-11T05:27:17.876Z,23.20
2022-11-11T05:30:03.750Z,22.40
2022-11-11T05:32:49.997Z,22.60
2022-11-11T05:35:36.650Z,22.40
2022-11-11T05:38:22.386Z,23.80
2022-11-11T05:41:08.998Z,20.20
2022-11-11T05:43:54.676Z,22.10
2022-11-11T05:46:40.773Z,22.20
2022-11-11T05:49:26.711Z,17.80
2022-11-11T05:52:13.912Z,24.40
2022-11-11T05:54:59.823Z,19.50
2022-11-11T05:57:45.274Z,22.30
2022-11-11T06:00:30.908Z,18.90
2022-11-11T06:03:16.916Z,20.20
2022-11-11T06:06:02.825Z,23.40
2022-11-11T06:08:49.003Z,19.30
2022-11-11T06:11:35.387Z,20.80
2022-11-11T06:14:21.009Z,22.40
2022-11-11T06:17:06.990Z,19.00
2022-11-11T06:19:52.746Z,17.70
2022-11-11T06:23:01.482Z,18.90
2022-11-11T06:26:05.245Z,16.20
2022-11-11T06:28:53.014Z,20.90
2022-11-11T06:31:39.006Z,14.30
2022-11-11T06:34:25.042Z,20.30
2022-11-11T06:37:10.860Z,17.40
2022-11-11T06:39:56.799Z,20.20
2022-11-11T06:42:42.416Z,20.30
2022-11-11T06:45:30.299Z,18.20
2022-11-11T06:51:06.069Z,19.70
2022-11-11T06:53:52.188Z,16.70
2022-11-11T06:56:37.626Z,18.30
2022-11-11T06:59:23.627Z,23.20
2022-11-11T07:02:14.072Z,18.90
2022-11-11T07:05:00.241Z,21.30
2022-11-11T07:07:46.222Z,22.20
2022-11-11T07:10:32.723Z,21.40
2022-11-11T07:13:19.440Z,14.10
2022-11-11T07:16:05.609Z,18.80
2022-11-11T07:18:51.237Z,18.40
2022-11-11T07:21:36.800Z,20.90
2022-11-11T07:24:22.429Z,19.70
2022-11-11T07:27:07.966Z,22.40
2022-11-11T07:29:54.253Z,21.50
2022-11-11T07:32:45.212Z,16.20
2022-11-11T07:35:30.802Z,16.10
2022-11-11T07:38:16.369Z,19.20
2022-11-11T07:41:01.972Z,18.00
2022-11-11T07:43:47.296Z,19.30
2022-11-11T07:46:33.228Z,24.00
2022-11-11T07:49:19.138Z,21.80
2022-11-11T07:52:05.279Z,24.30
2022-11-11T07:54:50.759Z,23.80
2022-11-11T07:57:36.818Z,19.20
2022-11-11T08:00:23.407Z,21.10
2022-11-11T08:03:09.485Z,15.40
2022-11-11T08:05:56.401Z,15.70
2022-11-11T08:08:42.026Z,18.60
2022-11-11T08:11:41.663Z,16.70
2022-11-11T08:14:27.976Z,16.30
2022-11-11T08:17:13.577Z,18.70
2022-11-11T08:19:59.169Z,17.50
2022-11-11T08:23:01.234Z,19.80
2022-11-11T08:25:51.270Z,17.70
2022-11-11T08:28:37.209Z,14.40
2022-11-11T08:31:23.093Z,15.90
2022-11-11T08:34:09.258Z,20.40
2022-11-11T08:36:55.158Z,16.60
2022-11-11T08:39:40.874Z,19.30
2022-11-11T08:42:27.841Z,19.30
2022-11-11T08:45:14.041Z,17.70
2022-11-11T08:47:59.600Z,17.90
2022-11-11T08:50:45.718Z,18.60
2022-11-11T08:53:32.636Z,16.50
2022-11-11T08:56:18.337Z,22.40
2022-11-11T08:59:04.086Z,16.50
2022-11-11T09:01:49.655Z,16.60
2022-11-11T09:04:44.983Z,16.90
2022-11-11T09:07:31.867Z,19.10
2022-11-11T09:10:17.945Z,18.50
2022-11-11T09:13:04.725Z,23.10
2022-11-11T09:15:50.466Z,17.50
2022-11-11T09:18:36.386Z,18.20
2022-11-11T09:21:24.212Z,19.30
2022-11-11T09:24:10.029Z,22.20
2022-11-11T09:26:56.230Z,20.90
2022-11-11T09:29:42.748Z,19.90
2022-11-11T09:32:28.433Z,22.80
2022-11-11T09:35:14.240Z,16.80
2022-11-11T09:38:01.945Z,15.50
2022-11-11T09:40:59.228Z,16.60
2022-11-11T09:43:53.785Z,16.80
2022-11-11T09:46:47.735Z,24.80
2022-11-11T09:49:46.634Z,19.20
2022-11-11T09:52:38.255Z,16.60
2022-11-11T09:55:28.683Z,17.40
2022-11-11T09:58:20.279Z,19.20
2022-11-11T10:01:12.270Z,15.30
2022-11-11T10:04:10.639Z,18.50
2022-11-11T10:07:02.085Z,15.80
2022-11-11T10:09:52.070Z,16.00
2022-11-11T10:12:44.290Z,23.20
2022-11-11T10:15:35.450Z,21.40
2022-11-11T10:18:42.021Z,19.20
2022-11-11T10:21:57.952Z,15.50
2022-11-11T10:24:47.207Z,17.80
2022-11-11T10:27:37.211Z,16.50
2022-11-11T10:30:31.163Z,21.10
2022-11-11T10:33:25.970Z,18.80
2022-11-11T10:36:19.613Z,18.30
2022-11-11T10:39:06.921Z,23.70
2022-11-11T10:41:53.566Z,22.30
2022-11-11T10:44:39.518Z,22.10
2022-11-11T10:47:40.947Z,23.20
2022-11-11T10:50:33.179Z,17.50
2022-11-11T10:53:27.032Z,15.00
2022-11-11T10:56:19.377Z,20.10
2022-11-11T10:59:13.020Z,21.50
2022-11-11T11:02:03.207Z,17.40
2022-11-11T11:04:54.680Z,18.40
2022-11-11T11:07:48.099Z,21.20
2022-11-11T11:10:40.829Z,16.80
2022-11-11T11:13:34.049Z,18.40
2022-11-11T11:16:24.092Z,19.30
2022-11-11T11:19:20.978Z,17.50
2022-11-11T11:22:06.726Z,14.90
2022-11-11T11:24:52.666Z,18.00
2022-11-11T11:27:38.840Z,19.10
2022-11-11T11:30:27.158Z,15.30
2022-11-11T11:33:13.112Z,17.50
2022-11-11T11:35:58.627Z,20.30
2022-11-11T11:38:46.811Z,19.60
2022-11-11T11:41:43.376Z,17.90
2022-11-11T11:44:30.995Z,20.40
2022-11-11T11:50:31.239Z,14.70
2022-11-11T11:53:30.025Z,17.60
2022-11-11T11:56:26.673Z,18.80
2022-11-11T11:59:20.266Z,17.90
2022-11-11T12:02:24.148Z,15.20
2022-11-11T12:05:19.720Z,17.70
2022-11-11T12:08:26.423Z,19.40
2022-11-11T12:11:19.826Z,18.10
2022-11-11T12:14:27.436Z,14.40
2022-11-11T12:17:26.456Z,18.80
2022-11-11T12:20:22.041Z,14.90
2022-11-11T12:23:28.752Z,14.80
2022-11-11T12:26:20.992Z,12.30
2022-11-11T12:29:32.901Z,15.30
2022-11-11T12:32:33.794Z,14.60
2022-11-11T12:35:34.680Z,13.90
2022-11-11T12:38:44.323Z,13.00
2022-11-11T12:41:42.214Z,14.60
2022-11-11T12:47:36.554Z,13.60
2022-11-11T12:50:26.298Z,12.30
2022-11-11T12:53:26.331Z,19.10
2022-11-11T12:56:24.687Z,17.20
2022-11-11T12:59:21.688Z,15.40
2022-11-11T13:02:22.165Z,17.20
2022-11-11T13:05:15.946Z,17.80
2022-11-11T13:08:20.832Z,14.90
2022-11-11T13:11:17.945Z,16.00
2022-11-11T13:14:22.047Z,15.50
2022-11-11T13:17:15.109Z,14.90
2022-11-11T13:20:05.189Z,13.60
2022-11-11T13:22:51.859Z,13.20
2022-11-11T13:25:49.468Z,15.60
2022-11-11T13:28:42.212Z,15.60
2022-11-11T13:31:35.519Z,18.20
2022-11-11T13:34:22.305Z,15.90
2022-11-11T13:37:10.548Z,14.10
2022-11-11T13:40:01.744Z,14.40
2022-11-11T13:42:53.723Z,13.80
2022-11-11T13:45:42.520Z,17.70
2022-11-11T13:48:32.457Z,15.70
2022-11-11T13:51:26.325Z,16.80
2022-11-11T13:54:25.973Z,15.20
2022-11-11T13:57:22.593Z,15.90
2022-11-11T14:00:25.191Z,14.30
2022-11-11T14:03:34.899Z,14.10
2022-11-11T14:06:57.859Z,16.60
2022-11-11T14:10:03.195Z,15.60
2022-11-11T14:12:50.472Z,14.00
2022-11-11T14:18:41.085Z,13.50
2022-11-11T14:21:49.984Z,15.30
2022-11-11T14:24:43.216Z,16.00
2022-11-11T14:27:32.295Z,17.40
2022-11-11T14:30:34.758Z,16.20
2022-11-11T14:33:32.441Z,16.10
2022-11-11T14:36:25.385Z,17.90
2022-11-11T14:39:22.329Z,22.80
2022-11-11T14:42:28.896Z,16.80
2022-11-11T14:46:00.258Z,18.00
2022-11-11T14:49:11.291Z,19.90
2022-11-11T14:52:00.200Z,16.10
2022-11-11T14:55:16.616Z,23.70
2022-11-11T14:58:11.459Z,18.90
2022-11-11T15:01:04.737Z,17.60
2022-11-11T15:03:53.772Z,21.30
2022-11-11T15:06:45.928Z,19.50
2022-11-11T15:09:49.465Z,21.10
2022-11-11T15:12:46.758Z,20.90
2022-11-11T15:15:40.713Z,20.90
2022-11-11T15:18:53.317Z,19.00
2022-11-11T15:21:45.144Z,19.90
2022-11-11T15:24:41.838Z,18.80
2022-11-11T15:27:35.232Z,18.90
2022-11-11T15:30:22.942Z,20.70
2022-11-11T15:33:19.769Z,17.10
2022-11-11T15:36:15.533Z,20.60
2022-11-11T15:39:06.475Z,18.10
2022-11-11T15:41:54.410Z,17.90
2022-11-11T15:44:40.354Z,18.10
2022-11-11T15:47:30.427Z,20.60
2022-11-11T15:50:36.719Z,17.40
2022-11-11T15:53:29.523Z,23.20
2022-11-11T15:56:33.507Z,21.20
2022-11-11T15:59:23.942Z,20.50
2022-11-11T16:02:23.748Z,20.80
2022-11-11T16:05:27.315Z,23.20
2022-11-11T16:08:21.680Z,23.90
2022-11-11T16:11:08.004Z,19.10
2022-11-11T16:14:02.552Z,24.20
2022-11-11T16:16:52.122Z,17.80
2022-11-11T16:19:47.815Z,22.40
2022-11-11T16:22:40.841Z,21.30
2022-11-11T16:25:26.925Z,19.60
2022-11-11T16:28:14.743Z,21.90
2022-11-11T16:33:43.963Z,20.60
2022-11-11T16:36:29.931Z,25.30
2022-11-11T16:39:27.340Z,20.40
2022-11-11T16:42:23.556Z,23.00
2022-11-11T16:45:23.471Z,23.20
2022-11-11T16:48:42.891Z,26.60
2022-11-11T16:51:43.217Z,21.40
2022-11-11T16:54:32.808Z,16.90
2022-11-11T16:57:22.703Z,20.10
2022-11-11T17:00:14.104Z,24.30
2022-11-11T17:03:15.869Z,18.90
2022-11-11T17:06:05.081Z,23.60
2022-11-11T17:08:52.137Z,19.90
2022-11-11T17:11:47.836Z,19.40
2022-11-11T17:14:35.444Z,21.30
2022-11-11T17:17:21.586Z,21.10
2022-11-11T17:20:10.568Z,20.10
2022-11-11T17:22:58.089Z,22.60
2022-11-11T17:28:28.615Z,26.20
2022-11-11T17:31:16.340Z,23.30
2022-11-11T17:34:06.548Z,20.50
2022-11-11T17:36:52.643Z,22.10
2022-11-11T17:39:39.283Z,18.90
2022-11-11T17:42:25.343Z,22.30
2022-11-11T17:45:12.927Z,22.60
2022-11-11T17:50:43.618Z,20.50
2022-11-11T17:53:29.660Z,25.50
2022-11-11T17:56:15.828Z,21.30
2022-11-11T17:59:02.013Z,25.40
2022-11-11T18:01:47.681Z,25.20
2022-11-11T18:04:33.542Z,21.60
2022-11-11T18:07:19.258Z,24.20
2022-11-11T18:10:05.777Z,20.80
2022-11-11T18:12:51.659Z,23.10
2022-11-11T18:15:37.928Z,22.80
2022-11-11T18:18:23.577Z,21.70
2022-11-11T18:21:10.077Z,21.60
2022-11-11T18:23:56.340Z,21.70
2022-11-11T18:26:41.939Z,20.20
2022-11-11T18:29:28.673Z,22.50
2022-11-11T18:32:14.250Z,19.30
2022-11-11T18:35:00.144Z,21.70
2022-11-11T18:37:46.824Z,22.50
2022-11-11T18:40:33.700Z,24.10
2022-11-11T18:43:19.729Z,25.10
2022-11-11T18:46:11.045Z,24.00
2022-11-11T18:48:58.215Z,26.10
2022-11-11T18:51:44.368Z,25.40
2022-11-11T18:54:30.767Z,26.10
2022-11-11T18:57:17.409Z,25.10
2022-11-11T19:00:03.668Z,24.50
2022-11-11T19:02:49.364Z,25.20
2022-11-11T19:05:35.311Z,21.40
2022-11-11T19:08:20.818Z,20.80
2022-11-11T19:11:08.764Z,24.50
2022-11-11T19:13:54.833Z,22.30
2022-11-11T19:16:42.019Z,19.10
2022-11-11T19:19:27.879Z,19.50
2022-11-11T19:22:13.616Z,21.30
2022-11-11T19:25:00.434Z,21.00
2022-11-11T19:27:46.155Z,22.00
2022-11-11T19:30:31.856Z,18.10
2022-11-11T19:33:17.335Z,19.40
2022-11-11T19:36:04.740Z,22.60
2022-11-11T19:41:35.145Z,28.70
2022-11-11T19:44:20.749Z,25.10
2022-11-11T19:47:07.079Z,22.90
2022-11-11T19:49:52.789Z,22.40
2022-11-11T19:52:38.432Z,20.60
2022-11-11T19:55:24.270Z,20.90
2022-11-11T19:58:09.863Z,17.60
2022-11-11T20:00:56.100Z,24.90
2022-11-11T20:03:42.910Z,23.20
2022-11-11T20:06:31.267Z,21.90
2022-11-11T20:09:17.876Z,23.00
2022-11-11T20:12:03.800Z,25.60
2022-11-11T20:14:49.846Z,20.80
2022-11-11T20:17:35.981Z,21.90
2022-11-11T20:20:21.996Z,25.80
2022-11-11T20:23:11.068Z,22.60
2022-11-11T20:25:57.762Z,21.20
2022-11-11T20:28:43.994Z,21.10
2022-11-11T20:31:30.149Z,21.60
2022-11-11T20:34:16.229Z,21.10
2022-11-11T20:37:01.758Z,22.00
2022-11-11T20:39:47.582Z,24.40
2022-11-11T20:42:33.250Z,28.70
2022-11-11T20:45:19.476Z,21.80
2022-11-11T20:48:08.923Z,25.40
2022-11-11T20:51:01.582Z,27.60
2022-11-11T20:53:47.979Z,23.30
2022-11-11T20:56:33.682Z,24.90
2022-11-11T20:59:19.548Z,22.20
2022-11-11T21:02:05.313Z,26.20
2022-11-11T21:04:51.144Z,28.30
2022-11-11T21:07:36.601Z,22.70
2022-11-11T21:10:22.170Z,22.70
2022-11-11T21:13:08.095Z,24.20
2022-11-11T21:15:53.968Z,29.80
2022-11-11T21:18:39.970Z,29.10
2022-11-11T21:21:28.512Z,24.60
2022-11-11T21:24:14.579Z,27.30
2022-11-11T21:27:00.290Z,24.30
2022-11-11T21:29:45.905Z,23.40
2022-11-11T21:32:31.582Z,26.80
2022-11-11T21:35:17.649Z,30.80
2022-11-11T21:38:03.399Z,22.80
2022-11-11T21:40:48.918Z,25.00
2022-11-11T21:43:35.421Z,27.60
2022-11-11T21:46:22.984Z,25.90
2022-11-11T21:49:08.729Z,25.90
2022-11-11T21:51:54.329Z,23.00
2022-11-11T21:54:40.517Z,23.60
2022-11-11T21:57:26.448Z,25.70
2022-11-11T22:00:14.903Z,23.70
2022-11-11T22:03:00.760Z,24.20
2022-11-11T22:05:46.396Z,26.40
2022-11-11T22:08:32.429Z,25.10
2022-11-11T22:11:20.360Z,24.00
2022-11-11T22:14:07.357Z,25.00
2022-11-11T22:16:53.367Z,24.00
2022-11-11T22:19:39.666Z,21.30
2022-11-11T22:22:25.270Z,23.50
2022-11-11T22:25:11.775Z,18.70
2022-11-11T22:27:57.091Z,21.10
2022-11-11T22:30:42.796Z,26.40
2022-11-11T22:33:28.199Z,20.80
2022-11-11T22:36:16.514Z,18.40
2022-11-11T22:39:03.057Z,19.20
2022-11-11T22:41:48.691Z,22.20
2022-11-11T22:44:34.220Z,21.90
2022-11-11T22:47:20.100Z,26.30
2022-11-11T22:50:06.789Z,29.40
2022-11-11T22:52:52.679Z,33.90
2022-11-11T22:55:38.495Z,31.10
2022-11-11T22:58:24.042Z,29.50
2022-11-11T23:01:13.835Z,29.40
2022-11-11T23:04:01.627Z,28.20
2022-11-11T23:06:48.242Z,24.60
2022-11-11T23:09:36.695Z,26.60
2022-11-11T23:12:22.631Z,26.50
2022-11-11T23:15:10.065Z,24.10
2022-11-11T23:20:40.195Z,22.70
2022-11-11T23:23:26.700Z,24.30
2022-11-11T23:26:14.776Z,26.70
2022-11-11T23:29:00.762Z,23.80
2022-11-11T23:31:46.733Z,25.00
2022-11-11T23:34:33.032Z,23.30
2022-11-11T23:37:18.928Z,26.70
2022-11-11T23:40:04.650Z,24.00
2022-11-11T23:42:50.995Z,22.50
2022-11-11T23:45:37.335Z,23.40
2022-11-11T23:48:25.336Z,26.70
2022-11-11T23:51:11.575Z,23.30
2022-11-11T23:53:58.035Z,25.70
2022-11-11T23:56:43.823Z,20.80
2022-11-11T23:59:30.129Z,21.70
